Time;durP1;ratioP1;P1;durP2;ratioP2;P2;SDS_P1;SDS_P2;PMS_P1;PMS_P2;Temp;Humidity;BMP_temperature;BMP_pressure;BME280_temperature;BME280_humidity;BME280_pressure;Samples;Min_cycle;Max_cycle;Signal;HPM_P1;HPM_P2
2024/01/17 00:00:01;;;;;;;;;;;-6.80;99.90;;;;;;5060562;28;19992;-72
2024/01/17 00:02:28;;;;;;;;;;;-6.70;99.90;;;;;;5062951;28;20281;-72
2024/01/17 00:04:56;;;;;;;;;;;-6.80;99.90;;;;;;5063761;28;19996;-72
2024/01/17 00:07:24;;;;;;;;;;;-6.80;99.90;;;;;;5063686;28;19948;-72
2024/01/17 00:09:51;;;;;;;;;;;-6.90;99.90;;;;;;5063794;28;19921;-72
2024/01/17 00:12:17;;;;;;;;;;;-6.90;99.90;;;;;;5063639;28;19927;-72
2024/01/17 00:14:44;;;;;;;;;;;-6.90;99.90;;;;;;5063880;28;19949;-73
2024/01/17 00:17:11;;;;;;;;;;;-7.00;99.90;;;;;;5063324;28;19988;-73
2024/01/17 00:19:38;;;;;;;;;;;-7.00;99.90;;;;;;5065893;28;19967;-72
2024/01/17 00:22:06;;;;;;;;;;;-7.00;99.90;;;;;;5067803;28;19920;-72
2024/01/17 00:24:33;;;;;;;;;;;-7.00;99.90;;;;;;5067817;28;19920;-72
2024/01/17 00:26:59;;;;;;;;;;;-7.10;99.90;;;;;;5067314;28;19992;-72
2024/01/17 00:29:26;;;;;;;;;;;-7.10;99.90;;;;;;5062440;28;19959;-72
2024/01/17 00:31:53;;;;;;;;;;;-7.10;99.90;;;;;;5067891;28;19995;-72
2024/01/17 00:34:19;;;;;;;;;;;-7.20;99.90;;;;;;5067372;28;19929;-72
2024/01/17 00:36:46;;;;;;;;;;;-7.20;99.90;;;;;;5067803;28;19920;-72
2024/01/17 00:39:16;;;;;;;;;;;-7.10;99.90;;;;;;5067822;28;19952;-72
2024/01/17 00:41:43;;;;;;;;;;;-7.10;99.90;;;;;;5067337;28;19928;-72
2024/01/17 00:44:14;;;;;;;;;;;-7.10;99.90;;;;;;5067398;28;19959;-72
2024/01/17 00:46:41;;;;;;;;;;;-7.10;99.90;;;;;;5067371;28;19921;-72
2024/01/17 00:49:07;;;;;;;;;;;-7.10;99.90;;;;;;5067782;28;19992;-72
2024/01/17 00:51:35;;;;;;;;;;;-7.10;99.90;;;;;;5068715;28;19984;-72
2024/01/17 00:54:01;;;;;;;;;;;-7.10;99.90;;;;;;5059531;28;19921;-72
2024/01/17 00:56:32;;;;;;;;;;;-7.10;99.90;;;;;;5067298;28;19921;-72
2024/01/17 00:58:58;;;;;;;;;;;-7.20;99.90;;;;;;5067408;28;19928;-72
2024/01/17 01:01:25;;;;;;;;;;;-7.20;99.90;;;;;;5067084;28;20185;-72
2024/01/17 01:03:52;;;;;;;;;;;-7.20;99.90;;;;;;5067103;28;19963;-72
2024/01/17 01:06:19;;;;;;;;;;;-7.20;99.90;;;;;;5067206;28;19935;-72
2024/01/17 01:08:45;;;;;;;;;;;-7.20;99.90;;;;;;5067162;28;19988;-72
2024/01/17 01:11:12;;;;;;;;;;;-7.20;99.90;;;;;;5066902;28;19987;-72
2024/01/17 01:13:40;;;;;;;;;;;-7.20;99.90;;;;;;5066631;28;19928;-72
2024/01/17 01:16:09;;;;;;;;;;;-7.20;99.90;;;;;;5066948;28;19948;-72
2024/01/17 01:18:36;;;;;;;;;;;-7.30;99.90;;;;;;5067146;28;19927;-72
2024/01/17 01:21:02;;;;;;;;;;;-7.30;99.90;;;;;;5067009;28;19944;-72
2024/01/17 01:23:29;;;;;;;;;;;-7.30;99.90;;;;;;5066880;28;19963;-72
2024/01/17 01:25:56;;;;;;;;;;;-7.40;99.90;;;;;;5066704;28;19988;-72
2024/01/17 01:28:22;;;;;;;;;;;-7.40;99.90;;;;;;5058589;28;19984;-72
2024/01/17 01:30:50;;;;;;;;;;;-7.40;99.90;;;;;;5066640;28;20173;-73
2024/01/17 01:33:17;;;;;;;;;;;-7.40;99.90;;;;;;5066993;28;20177;-72
2024/01/17 01:35:43;;;;;;;;;;;-7.40;99.90;;;;;;5066688;28;19921;-72
2024/01/17 01:38:10;;;;;;;;;;;-7.40;99.90;;;;;;5067029;28;19943;-72
2024/01/17 01:40:38;;;;;;;;;;;-7.30;99.90;;;;;;5067871;28;20279;-72
2024/01/17 01:43:17;;;;;;;;;;;-7.30;99.90;;;;;;5074473;28;19931;-72
2024/01/17 01:45:44;;;;;;;;;;;-7.30;99.90;;;;;;5074416;28;19980;-72
2024/01/17 01:48:12;;;;;;;;;;;-7.40;99.90;;;;;;5074026;28;19980;-72
2024/01/17 01:50:39;;;;;;;;;;;-7.40;99.90;;;;;;5073332;28;19943;-72
2024/01/17 01:53:06;;;;;;;;;;;-7.40;99.90;;;;;;5070920;28;20088;-72
2024/01/17 01:55:32;;;;;;;;;;;-7.30;99.90;;;;;;5065577;28;19952;-72
2024/01/17 01:57:59;;;;;;;;;;;-7.30;99.90;;;;;;5065675;28;19920;-72
2024/01/17 02:00:26;;;;;;;;;;;-7.30;99.90;;;;;;5066184;28;19921;-72
2024/01/17 02:02:53;;;;;;;;;;;-7.30;99.90;;;;;;5066155;28;20004;-72
2024/01/17 02:05:21;;;;;;;;;;;-7.20;99.90;;;;;;5065442;28;19935;-72
2024/01/17 02:07:49;;;;;;;;;;;-7.20;99.90;;;;;;5066017;28;19955;-72
2024/01/17 02:10:16;;;;;;;;;;;-7.20;99.90;;;;;;5065894;28;19952;-72
2024/01/17 02:12:43;;;;;;;;;;;-7.20;99.90;;;;;;5066078;28;20177;-72
2024/01/17 02:15:10;;;;;;;;;;;-7.20;99.90;;;;;;5065410;28;19984;-72
2024/01/17 02:17:36;;;;;;;;;;;-7.20;99.90;;;;;;5065884;28;19928;-72
2024/01/17 02:20:03;;;;;;;;;;;-7.20;99.90;;;;;;5065692;28;19928;-72
2024/01/17 02:22:31;;;;;;;;;;;-7.20;99.90;;;;;;5065768;28;19963;-72
2024/01/17 02:25:04;;;;;;;;;;;-7.20;99.90;;;;;;5065311;28;19920;-72
2024/01/17 02:27:31;;;;;;;;;;;-7.20;99.90;;;;;;5065586;28;19924;-72
2024/01/17 02:29:57;;;;;;;;;;;-7.20;99.90;;;;;;5065553;28;19979;-73
2024/01/17 02:32:25;;;;;;;;;;;-7.20;99.90;;;;;;5065390;28;20181;-72
2024/01/17 02:34:52;;;;;;;;;;;-7.10;99.90;;;;;;5065045;28;20198;-72
2024/01/17 02:37:18;;;;;;;;;;;-7.10;99.90;;;;;;5065071;28;19956;-72
2024/01/17 02:39:45;;;;;;;;;;;-7.10;99.90;;;;;;5065093;28;19984;-72
2024/01/17 02:42:13;;;;;;;;;;;-7.10;99.90;;;;;;5064251;28;19992;-72
2024/01/17 02:44:39;;;;;;;;;;;-7.10;99.90;;;;;;5064771;28;20309;-72
2024/01/17 02:47:06;;;;;;;;;;;-7.10;99.90;;;;;;5065292;28;19921;-72
2024/01/17 02:49:33;;;;;;;;;;;-7.10;99.90;;;;;;5064822;28;20289;-72
2024/01/17 02:52:00;;;;;;;;;;;-7.10;99.90;;;;;;5061586;28;20225;-72
2024/01/17 02:54:27;;;;;;;;;;;-7.10;99.90;;;;;;5057107;28;19920;-72
2024/01/17 02:56:54;;;;;;;;;;;-7.00;99.90;;;;;;5064771;28;20218;-72
2024/01/17 02:59:22;;;;;;;;;;;-7.00;99.90;;;;;;5064711;28;21122;-72
2024/01/17 03:01:48;;;;;;;;;;;-6.90;99.90;;;;;;5064654;28;20294;-72
2024/01/17 03:04:15;;;;;;;;;;;-6.90;99.90;;;;;;5064380;28;19967;-72
2024/01/17 03:06:42;;;;;;;;;;;-6.90;99.90;;;;;;5064250;28;20218;-72
2024/01/17 03:09:10;;;;;;;;;;;-6.80;99.90;;;;;;5064413;28;19920;-73
2024/01/17 03:11:37;;;;;;;;;;;-6.70;99.90;;;;;;5064734;28;20110;-72
2024/01/17 03:14:04;;;;;;;;;;;-6.70;99.90;;;;;;5063987;28;19993;-72
2024/01/17 03:16:32;;;;;;;;;;;-6.60;99.90;;;;;;5064561;28;19928;-72
2024/01/17 03:18:58;;;;;;;;;;;-6.60;99.90;;;;;;5064669;28;20153;-72
2024/01/17 03:21:25;;;;;;;;;;;-6.60;99.90;;;;;;5064510;28;19920;-72
2024/01/17 03:23:52;;;;;;;;;;;-6.50;99.90;;;;;;5063981;28;20253;-72
2024/01/17 03:26:18;;;;;;;;;;;-6.50;99.90;;;;;;5064463;28;19928;-72
2024/01/17 03:28:45;;;;;;;;;;;-6.50;99.90;;;;;;5064424;28;19924;-73
2024/01/17 03:31:12;;;;;;;;;;;-6.50;99.90;;;;;;5064094;28;19925;-72
2024/01/17 03:33:40;;;;;;;;;;;-6.40;99.90;;;;;;5064437;28;19921;-72
2024/01/17 03:36:07;;;;;;;;;;;-6.40;99.90;;;;;;5064280;28;19974;-72
2024/01/17 03:38:33;;;;;;;;;;;-6.30;99.90;;;;;;5064386;28;19952;-72
2024/01/17 03:41:01;;;;;;;;;;;-6.30;99.90;;;;;;5063949;28;19955;-72
2024/01/17 03:43:27;;;;;;;;;;;-6.30;99.90;;;;;;5063799;28;20218;-72
2024/01/17 03:45:57;;;;;;;;;;;-6.20;99.90;;;;;;5064034;28;19924;-72
2024/01/17 03:48:23;;;;;;;;;;;-6.20;99.90;;;;;;5063840;28;19921;-72
2024/01/17 03:50:51;;;;;;;;;;;-6.20;99.90;;;;;;5064280;28;19921;-72
2024/01/17 03:53:18;;;;;;;;;;;-6.10;99.90;;;;;;5063148;28;20261;-73
2024/01/17 03:55:44;;;;;;;;;;;-6.10;99.90;;;;;;5063421;28;19921;-72
2024/01/17 03:58:11;;;;;;;;;;;-6.10;99.90;;;;;;5064504;28;20087;-72
2024/01/17 04:00:38;;;;;;;;;;;-6.00;99.90;;;;;;5064683;28;20225;-72
2024/01/17 04:03:05;;;;;;;;;;;-6.00;99.90;;;;;;5064778;28;19980;-72
2024/01/17 04:05:31;;;;;;;;;;;-5.90;99.90;;;;;;5064099;28;20276;-72
2024/01/17 04:07:59;;;;;;;;;;;-5.90;99.90;;;;;;5064081;28;19927;-72
2024/01/17 04:10:26;;;;;;;;;;;-5.90;99.90;;;;;;5063555;28;19977;-73
2024/01/17 04:12:52;;;;;;;;;;;-5.90;99.90;;;;;;5063612;28;19983;-73
2024/01/17 04:15:19;;;;;;;;;;;-5.90;99.90;;;;;;5063572;28;20015;-72
2024/01/17 04:17:45;;;;;;;;;;;-5.90;99.90;;;;;;5063373;28;19927;-72
2024/01/17 04:20:13;;;;;;;;;;;-5.90;99.90;;;;;;5063504;28;19921;-72
2024/01/17 04:22:40;;;;;;;;;;;-5.80;99.90;;;;;;5063385;28;20251;-73
2024/01/17 04:25:08;;;;;;;;;;;-5.80;99.90;;;;;;5063316;28;19921;-72
2024/01/17 04:27:35;;;;;;;;;;;-5.90;99.90;;;;;;5063615;28;19959;-72
2024/01/17 04:30:01;;;;;;;;;;;-5.80;99.90;;;;;;5063172;28;19980;-72
2024/01/17 04:32:29;;;;;;;;;;;-5.70;99.90;;;;;;5063377;28;19983;-73
2024/01/17 04:34:55;;;;;;;;;;;-5.70;99.90;;;;;;5063422;28;19986;-72
2024/01/17 04:37:22;;;;;;;;;;;-5.80;99.90;;;;;;5063295;28;19970;-73
2024/01/17 04:39:49;;;;;;;;;;;-5.80;99.90;;;;;;5063139;28;19920;-72
2024/01/17 04:42:17;;;;;;;;;;;-5.70;99.90;;;;;;5063296;28;19984;-72
2024/01/17 04:44:45;;;;;;;;;;;-5.70;99.90;;;;;;5063333;28;19952;-72
2024/01/17 04:47:12;;;;;;;;;;;-5.70;99.90;;;;;;5063509;28;19928;-75
2024/01/17 04:49:39;;;;;;;;;;;-5.70;99.90;;;;;;5063300;28;19962;-72
2024/01/17 04:52:06;;;;;;;;;;;-5.70;99.90;;;;;;5063342;28;19920;-72
2024/01/17 04:54:32;;;;;;;;;;;-5.60;99.90;;;;;;5063272;28;19959;-72
2024/01/17 04:56:59;;;;;;;;;;;-5.70;99.90;;;;;;5063013;28;20252;-72
2024/01/17 04:59:28;;;;;;;;;;;-5.70;99.90;;;;;;5041486;28;19936;-72
2024/01/17 05:01:55;;;;;;;;;;;-5.60;99.90;;;;;;5043281;28;19967;-72
2024/01/17 05:04:22;;;;;;;;;;;-5.60;99.90;;;;;;5043280;28;20133;-72
2024/01/17 05:06:49;;;;;;;;;;;-5.60;99.90;;;;;;5045709;28;19952;-72
2024/01/17 05:09:17;;;;;;;;;;;-5.60;99.90;;;;;;5047368;28;19952;-72
2024/01/17 05:11:44;;;;;;;;;;;-5.50;99.90;;;;;;5047608;28;21309;-72
2024/01/17 05:14:10;;;;;;;;;;;-5.40;99.90;;;;;;5044884;28;19956;-72
2024/01/17 05:16:38;;;;;;;;;;;-5.40;99.90;;;;;;5047034;28;20260;-72
2024/01/17 05:19:05;;;;;;;;;;;-5.30;99.90;;;;;;5045493;28;19951;-72
2024/01/17 05:21:32;;;;;;;;;;;-5.30;99.90;;;;;;5047010;28;19920;-73
2024/01/17 05:23:58;;;;;;;;;;;-5.20;99.90;;;;;;5063383;28;19988;-73
2024/01/17 05:27:12;;;;;;;;;;;-5.20;99.90;;;;;;5067537;28;19925;-75
2024/01/17 05:32:25;;;;;;;;;;;-5.10;99.90;;;;;;4996241;28;20198;-87
2024/01/17 05:34:53;;;;;;;;;;;-5.10;99.90;;;;;;4997304;28;19926;-88
2024/01/17 05:37:21;;;;;;;;;;;-5.10;99.90;;;;;;4995292;28;19929;-89
2024/01/17 05:39:48;;;;;;;;;;;-5.10;99.90;;;;;;5004440;28;20222;-89
2024/01/17 05:42:15;;;;;;;;;;;-5.10;99.90;;;;;;5018390;28;19953;-87
2024/01/17 05:44:42;;;;;;;;;;;-5.10;99.90;;;;;;5026985;28;19980;-89
2024/01/17 05:47:08;;;;;;;;;;;-5.10;99.90;;;;;;5008941;28;19956;-90
2024/01/17 05:49:37;;;;;;;;;;;-5.00;99.90;;;;;;5019911;28;19921;-90
2024/01/17 05:52:04;;;;;;;;;;;-4.80;99.90;;;;;;5024966;28;19944;-90
2024/01/17 05:54:31;;;;;;;;;;;-4.90;99.90;;;;;;5010248;28;20226;-89
2024/01/17 05:56:57;;;;;;;;;;;-4.80;99.90;;;;;;5019606;28;19989;-90
2024/01/17 05:59:24;;;;;;;;;;;-4.70;99.90;;;;;;5021046;28;19981;-90
2024/01/17 06:01:51;;;;;;;;;;;-4.90;99.90;;;;;;5017897;28;19931;-90
2024/01/17 06:04:17;;;;;;;;;;;-4.80;99.90;;;;;;4995445;28;20001;-90
2024/01/17 06:06:46;;;;;;;;;;;-4.70;99.90;;;;;;4995673;28;19921;-89
2024/01/17 06:09:14;;;;;;;;;;;-4.70;99.90;;;;;;5003277;28;19937;-89
2024/01/17 06:11:40;;;;;;;;;;;-4.70;99.90;;;;;;5003243;28;19929;-89
2024/01/17 06:14:07;;;;;;;;;;;-4.70;99.90;;;;;;4995099;28;19929;-91
2024/01/17 06:16:34;;;;;;;;;;;-4.60;99.90;;;;;;4995380;28;20002;-90
2024/01/17 06:19:01;;;;;;;;;;;-4.60;99.90;;;;;;4998651;28;19997;-88
2024/01/17 06:21:27;;;;;;;;;;;-4.60;99.90;;;;;;5000500;28;19972;-86
2024/01/17 06:23:55;;;;;;;;;;;-4.60;99.90;;;;;;4993297;28;19952;-88
2024/01/17 06:26:22;;;;;;;;;;;-4.50;99.90;;;;;;4992917;28;19993;-88
2024/01/17 06:28:49;;;;;;;;;;;-4.50;99.90;;;;;;4993169;28;20217;-88
2024/01/17 06:31:22;;;;;;;;;;;-3.50;99.90;;;;;;4995681;28;20057;-88
2024/01/17 06:33:49;;;;;;;;;;;-4.40;99.90;;;;;;4994835;28;19929;-88
2024/01/17 06:36:16;;;;;;;;;;;-4.40;99.90;;;;;;4994462;28;19955;-88
2024/01/17 06:38:42;;;;;;;;;;;-4.40;99.90;;;;;;5003273;28;19993;-88
2024/01/17 06:41:10;;;;;;;;;;;-4.30;99.90;;;;;;5016706;28;19948;-89
2024/01/17 06:43:37;;;;;;;;;;;-4.30;99.90;;;;;;5014391;28;19988;-88
2024/01/17 06:46:04;;;;;;;;;;;-4.20;99.90;;;;;;5007432;28;19929;-87
2024/01/17 06:48:30;;;;;;;;;;;-4.20;99.90;;;;;;5010680;28;19989;-87
2024/01/17 06:50:57;;;;;;;;;;;-4.10;99.90;;;;;;5011092;28;19988;-88
2024/01/17 06:53:24;;;;;;;;;;;-4.00;99.90;;;;;;5016377;28;19952;-87
2024/01/17 06:55:51;;;;;;;;;;;-4.00;99.90;;;;;;5024538;28;19921;-88
2024/01/17 06:58:19;;;;;;;;;;;-4.00;99.90;;;;;;5023571;28;19945;-87
2024/01/17 07:00:46;;;;;;;;;;;-4.00;99.90;;;;;;5024280;28;19922;-88
2024/01/17 07:03:12;;;;;;;;;;;-4.00;99.90;;;;;;5014684;28;19952;-88
2024/01/17 07:05:39;;;;;;;;;;;-4.00;99.90;;;;;;5012884;28;19997;-90
2024/01/17 07:08:06;;;;;;;;;;;-3.90;99.90;;;;;;5019200;28;19949;-90
2024/01/17 07:10:34;;;;;;;;;;;-3.90;99.90;;;;;;5019844;28;19921;-90
2024/01/17 07:13:01;;;;;;;;;;;-3.80;99.90;;;;;;5005232;28;20281;-89
2024/01/17 07:15:29;;;;;;;;;;;-3.80;99.90;;;;;;5024576;28;20008;-89
2024/01/17 07:17:56;;;;;;;;;;;-3.80;99.90;;;;;;5024074;28;19959;-89
2024/01/17 07:20:23;;;;;;;;;;;-3.70;99.90;;;;;;5023542;28;20281;-89
2024/01/17 07:22:49;;;;;;;;;;;-3.60;99.90;;;;;;5019779;28;19955;-89
2024/01/17 07:25:16;;;;;;;;;;;-3.60;99.90;;;;;;5023912;28;19966;-89
2024/01/17 07:27:45;;;;;;;;;;;-3.60;99.90;;;;;;5017646;28;19952;-89
2024/01/17 07:30:12;;;;;;;;;;;-3.60;99.90;;;;;;5013400;28;19957;-90
2024/01/17 07:32:41;;;;;;;;;;;-3.50;99.90;;;;;;5023389;28;20016;-89
2024/01/17 07:35:08;;;;;;;;;;;-3.50;99.90;;;;;;5020451;28;19922;-89
2024/01/17 07:37:35;;;;;;;;;;;-3.50;99.90;;;;;;5011764;28;19949;-90
2024/01/17 07:40:02;;;;;;;;;;;-3.40;99.90;;;;;;5005386;28;19922;-89
2024/01/17 07:42:29;;;;;;;;;;;-3.40;99.90;;;;;;5015897;28;20182;-90
2024/01/17 07:44:55;;;;;;;;;;;-3.40;99.90;;;;;;5023121;28;20188;-89
2024/01/17 07:47:23;;;;;;;;;;;-3.40;99.90;;;;;;5019990;28;19989;-89
2024/01/17 07:49:51;;;;;;;;;;;-3.40;99.90;;;;;;5015235;28;19928;-89
2024/01/17 07:52:18;;;;;;;;;;;-3.00;99.90;;;;;;5013119;28;19921;-90
2024/01/17 07:54:44;;;;;;;;;;;-3.20;99.90;;;;;;5008271;28;19945;-89
2024/01/17 07:57:12;;;;;;;;;;;-3.10;99.90;;;;;;5013267;28;19985;-89
2024/01/17 07:59:38;;;;;;;;;;;-3.10;99.90;;;;;;5005321;28;19922;-89
2024/01/17 08:02:05;;;;;;;;;;;-3.00;99.90;;;;;;5020702;28;19981;-89
2024/01/17 08:04:32;;;;;;;;;;;-2.90;99.90;;;;;;5023244;28;19921;-89
2024/01/17 08:07:00;;;;;;;;;;;-2.80;99.90;;;;;;5024596;28;19945;-89
2024/01/17 08:09:28;;;;;;;;;;;-2.60;99.90;;;;;;5011269;28;19947;-89
2024/01/17 08:11:55;;;;;;;;;;;-2.50;99.90;;;;;;5009341;28;19921;-90
2024/01/17 08:14:22;;;;;;;;;;;-2.40;99.90;;;;;;5018214;28;20274;-89
2024/01/17 08:16:50;;;;;;;;;;;-2.30;99.90;;;;;;5024120;28;19921;-89
2024/01/17 08:19:17;;;;;;;;;;;-2.20;99.90;;;;;;5017211;28;19927;-89
2024/01/17 08:21:44;;;;;;;;;;;-2.10;99.90;;;;;;5011628;28;19921;-89
2024/01/17 08:24:12;;;;;;;;;;;-2.10;99.90;;;;;;5020200;28;19921;-89
2024/01/17 08:26:39;;;;;;;;;;;-2.00;99.90;;;;;;5012187;28;19922;-89
2024/01/17 08:29:06;;;;;;;;;;;-1.90;99.90;;;;;;5013167;28;19921;-89
2024/01/17 08:31:33;;;;;;;;;;;-1.80;99.90;;;;;;5013700;28;19997;-89
2024/01/17 08:34:00;;;;;;;;;;;-1.70;99.90;;;;;;5015701;28;20089;-89
2024/01/17 08:36:28;;;;;;;;;;;-1.70;99.90;;;;;;5024153;28;19921;-89
2024/01/17 08:38:55;;;;;;;;;;;-1.60;99.90;;;;;;5024800;28;20174;-88
2024/01/17 08:41:24;;;;;;;;;;;-1.50;99.90;;;;;;5020306;28;20137;-89
2024/01/17 08:43:50;;;;;;;;;;;-1.40;99.90;;;;;;5022212;28;19956;-88
2024/01/17 08:46:17;;;;;;;;;;;-1.40;99.90;;;;;;5020916;28;19997;-88
2024/01/17 08:48:44;;;;;;;;;;;-1.40;99.90;;;;;;5021436;28;20289;-88
2024/01/17 08:51:11;;;;;;;;;;;-1.30;99.90;;;;;;5028749;28;19955;-88
2024/01/17 08:53:38;;;;;;;;;;;-1.20;99.90;;;;;;5020422;28;19922;-88
2024/01/17 08:56:05;;;;;;;;;;;-1.10;99.90;;;;;;5013589;28;19964;-88
2024/01/17 08:58:34;;;;;;;;;;;-1.10;99.90;;;;;;5021066;28;19927;-88
2024/01/17 09:01:02;;;;;;;;;;;-1.00;99.90;;;;;;5016932;28;19952;-88
2024/01/17 09:03:29;;;;;;;;;;;-0.90;99.90;;;;;;5006824;28;19932;-88
2024/01/17 09:05:55;;;;;;;;;;;-0.90;99.90;;;;;;5010211;28;19937;-88
2024/01/17 09:08:22;;;;;;;;;;;-0.80;99.90;;;;;;4995740;28;19957;-88
2024/01/17 09:10:49;;;;;;;;;;;-0.70;99.90;;;;;;4993254;28;19936;-88
2024/01/17 09:13:16;;;;;;;;;;;-0.60;99.90;;;;;;4994161;28;19922;-88
2024/01/17 09:15:45;;;;;;;;;;;-0.50;99.90;;;;;;4996906;28;20214;-88
2024/01/17 09:18:11;;;;;;;;;;;-0.40;99.90;;;;;;4996179;28;19940;-88
2024/01/17 09:20:38;;;;;;;;;;;-0.40;99.90;;;;;;4995553;28;20186;-88
2024/01/17 09:23:05;;;;;;;;;;;-0.20;99.90;;;;;;4993993;28;19930;-89
2024/01/17 09:25:31;;;;;;;;;;;-0.10;99.90;;;;;;4996286;28;19929;-90
2024/01/17 09:27:58;;;;;;;;;;;-0.10;99.90;;;;;;4995067;28;20370;-90
2024/01/17 09:30:25;;;;;;;;;;;0.00;99.90;;;;;;4996323;28;19935;-90
2024/01/17 09:32:53;;;;;;;;;;;0.00;99.90;;;;;;4999040;28;20021;-91
2024/01/17 09:35:20;;;;;;;;;;;0.10;99.90;;;;;;4998269;28;19972;-90
2024/01/17 09:37:46;;;;;;;;;;;0.20;99.90;;;;;;5008813;28;19978;-90
2024/01/17 09:40:14;;;;;;;;;;;0.40;99.90;;;;;;5011435;28;19953;-91
2024/01/17 09:42:41;;;;;;;;;;;0.40;99.90;;;;;;5013928;28;20142;-92
2024/01/17 09:45:08;;;;;;;;;;;0.50;99.90;;;;;;5014804;28;19957;-92
2024/01/17 09:47:36;;;;;;;;;;;0.70;99.90;;;;;;5009196;28;19952;-93
2024/01/17 09:50:05;;;;;;;;;;;0.70;99.90;;;;;;4996559;28;20230;-92
2024/01/17 09:52:34;;;;;;;;;;;0.80;99.90;;;;;;4996226;28;19922;-93
2024/01/17 09:55:01;;;;;;;;;;;0.80;99.90;;;;;;4997404;28;20001;-93
2024/01/17 09:57:30;;;;;;;;;;;0.90;99.90;;;;;;4998806;28;19928;-92
2024/01/17 09:59:57;;;;;;;;;;;0.90;99.90;;;;;;4997665;28;19975;-92
2024/01/17 10:02:25;;;;;;;;;;;1.00;99.90;;;;;;5000153;28;19994;-92
2024/01/17 10:04:52;;;;;;;;;;;1.00;99.90;;;;;;4997794;28;19934;-93
2024/01/17 10:07:20;;;;;;;;;;;1.10;99.90;;;;;;4998223;28;19930;-94
2024/01/17 10:09:47;;;;;;;;;;;1.10;99.90;;;;;;5000437;28;19996;-93
2024/01/17 10:12:18;;;;;;;;;;;1.10;99.90;;;;;;5016059;28;19955;-92
2024/01/17 10:14:45;;;;;;;;;;;1.20;99.90;;;;;;5019723;28;19922;-92
2024/01/17 10:17:11;;;;;;;;;;;1.20;99.90;;;;;;5014897;28;19989;-92
2024/01/17 10:19:39;;;;;;;;;;;1.20;99.90;;;;;;4996505;28;19926;-92
2024/01/17 10:22:19;;;;;;;;;;;1.20;99.90;;;;;;4997038;28;20160;-93
2024/01/17 10:24:52;;;;;;;;;;;1.30;99.90;;;;;;4999850;28;19922;-93
2024/01/17 10:27:19;;;;;;;;;;;1.30;99.90;;;;;;4993070;28;19984;-93
2024/01/17 10:29:45;;;;;;;;;;;1.40;99.90;;;;;;5016348;28;19930;-92
2024/01/17 10:32:13;;;;;;;;;;;1.40;99.90;;;;;;5008027;28;19929;-94
2024/01/17 10:34:39;;;;;;;;;;;1.40;99.90;;;;;;5016980;28;19944;-93
2024/01/17 10:37:07;;;;;;;;;;;1.40;99.90;;;;;;5019389;28;19928;-94
2024/01/17 10:39:34;;;;;;;;;;;1.40;99.90;;;;;;5021342;28;19949;-93
2024/01/17 10:42:05;;;;;;;;;;;1.40;99.90;;;;;;4999246;28;19952;-93
2024/01/17 10:44:32;;;;;;;;;;;1.50;99.90;;;;;;4994814;28;21069;-93
2024/01/17 10:46:59;;;;;;;;;;;1.50;99.90;;;;;;4997073;28;19968;-93
2024/01/17 10:49:25;;;;;;;;;;;1.50;99.90;;;;;;4994456;28;19952;-93
2024/01/17 10:51:54;;;;;;;;;;;1.60;99.90;;;;;;5011828;28;19921;-93
2024/01/17 10:54:25;;;;;;;;;;;1.70;99.90;;;;;;5016906;28;19992;-93
2024/01/17 10:56:55;;;;;;;;;;;1.60;99.90;;;;;;4994058;28;19961;-93
2024/01/17 10:59:24;;;;;;;;;;;1.60;99.90;;;;;;4998041;28;19939;-93
2024/01/17 11:01:51;;;;;;;;;;;1.60;99.90;;;;;;5006688;28;19953;-95
2024/01/17 11:04:22;;;;;;;;;;;1.70;99.90;;;;;;4998777;28;20213;-93
2024/01/17 11:06:49;;;;;;;;;;;1.70;99.90;;;;;;4994366;28;19957;-94
2024/01/17 11:09:16;;;;;;;;;;;1.80;99.90;;;;;;4995863;28;19993;-94
2024/01/17 11:11:45;;;;;;;;;;;1.90;99.90;;;;;;4995797;28;19929;-94
2024/01/17 11:14:12;;;;;;;;;;;1.80;99.90;;;;;;4994672;28;19922;-93
2024/01/17 11:16:42;;;;;;;;;;;1.90;99.90;;;;;;4995273;28;19929;-93
2024/01/17 11:19:09;;;;;;;;;;;1.90;99.90;;;;;;4994955;28;19922;-92
2024/01/17 11:21:37;;;;;;;;;;;2.00;99.90;;;;;;5000208;28;19929;-93
2024/01/17 11:24:08;;;;;;;;;;;2.00;99.90;;;;;;5012340;28;20210;-92
2024/01/17 11:26:36;;;;;;;;;;;2.00;99.90;;;;;;5011346;28;19921;-93
2024/01/17 11:29:10;;;;;;;;;;;2.10;99.90;;;;;;5015802;28;19921;-93
2024/01/17 11:31:45;;;;;;;;;;;2.10;99.90;;;;;;5020248;28;19929;-93
2024/01/17 11:34:12;;;;;;;;;;;2.20;99.90;;;;;;5020519;28;20094;-93
2024/01/17 11:36:44;;;;;;;;;;;2.10;99.90;;;;;;5020871;28;19956;-93
2024/01/17 11:39:15;;;;;;;;;;;2.20;99.90;;;;;;5018582;28;19945;-93
2024/01/17 11:41:42;;;;;;;;;;;2.20;99.90;;;;;;5019712;28;19933;-93
2024/01/17 11:44:11;;;;;;;;;;;2.20;99.90;;;;;;5018789;28;22489;-93
2024/01/17 11:46:38;;;;;;;;;;;2.20;99.90;;;;;;5024967;28;19939;-93
2024/01/17 11:49:09;;;;;;;;;;;2.20;99.90;;;;;;5028421;28;19965;-92
2024/01/17 11:51:37;;;;;;;;;;;2.20;99.90;;;;;;5030147;28;19929;-93
2024/01/17 11:54:04;;;;;;;;;;;2.20;99.90;;;;;;5028683;28;19998;-94
2024/01/17 11:56:30;;;;;;;;;;;2.20;99.90;;;;;;5021890;28;19921;-93
2024/01/17 11:58:58;;;;;;;;;;;2.20;99.90;;;;;;5019848;28;19937;-94
2024/01/17 12:01:39;;;;;;;;;;;2.70;99.90;;;;;;5023000;28;19949;-94
2024/01/17 12:04:11;;;;;;;;;;;2.20;99.90;;;;;;5024896;28;19948;-93
2024/01/17 12:06:38;;;;;;;;;;;2.20;99.90;;;;;;5017882;28;19989;-93
2024/01/17 12:09:07;;;;;;;;;;;2.20;99.90;;;;;;5015169;28;20021;-93
2024/01/17 12:11:34;;;;;;;;;;;2.20;99.90;;;;;;5017384;28;19929;-93
2024/01/17 12:14:02;;;;;;;;;;;2.20;99.90;;;;;;5018837;28;19953;-94
2024/01/17 12:16:30;;;;;;;;;;;2.30;99.90;;;;;;5023298;28;19945;-94
2024/01/17 12:18:58;;;;;;;;;;;2.30;99.90;;;;;;5013542;28;19922;-94
2024/01/17 12:21:26;;;;;;;;;;;2.30;99.90;;;;;;5017227;28;19921;-93
2024/01/17 12:23:53;;;;;;;;;;;2.20;99.90;;;;;;5014063;28;19998;-92
2024/01/17 12:26:19;;;;;;;;;;;2.20;99.90;;;;;;5017446;28;19922;-93
2024/01/17 12:28:47;;;;;;;;;;;2.20;99.90;;;;;;5013577;28;19929;-94
2024/01/17 12:31:16;;;;;;;;;;;2.20;99.90;;;;;;5006060;28;19968;-94
2024/01/17 12:33:43;;;;;;;;;;;2.30;99.90;;;;;;5019468;28;20004;-94
2024/01/17 12:36:21;;;;;;;;;;;2.20;99.90;;;;;;5028308;28;19955;-94
2024/01/17 12:38:51;;;;;;;;;;;2.20;99.90;;;;;;5022113;28;19922;-94
2024/01/17 12:41:18;;;;;;;;;;;2.20;99.90;;;;;;5025474;28;19928;-94
2024/01/17 12:43:46;;;;;;;;;;;2.20;99.90;;;;;;5032530;28;19922;-94
2024/01/17 12:46:13;;;;;;;;;;;2.30;99.90;;;;;;5018357;28;20198;-94
2024/01/17 12:48:51;;;;;;;;;;;2.20;99.90;;;;;;4999100;28;19936;-93
2024/01/17 12:51:18;;;;;;;;;;;3.60;99.90;;;;;;4998901;28;19937;-93
2024/01/17 12:53:45;;;;;;;;;;;2.30;99.90;;;;;;4997487;28;19957;-94
2024/01/17 12:56:14;;;;;;;;;;;2.20;99.90;;;;;;4998855;28;19933;-93
2024/01/17 12:58:41;;;;;;;;;;;2.30;99.90;;;;;;4997438;28;19922;-93
2024/01/17 13:01:08;;;;;;;;;;;2.30;99.90;;;;;;5012755;28;19921;-95
2024/01/17 13:03:34;;;;;;;;;;;2.20;99.90;;;;;;5014334;28;19946;-94
2024/01/17 13:06:05;;;;;;;;;;;2.80;99.90;;;;;;5051936;22;19921;-96
2024/01/17 13:08:32;;;;;;;;;;;2.30;99.90;;;;;;5027261;28;19977;-93
2024/01/17 13:11:03;;;;;;;;;;;2.40;99.90;;;;;;5045749;28;19951;-95
2024/01/17 13:13:30;;;;;;;;;;;2.40;99.90;;;;;;5046951;28;20001;-94
2024/01/17 13:15:58;;;;;;;;;;;2.40;99.90;;;;;;5046305;28;19944;-94
2024/01/17 13:18:25;;;;;;;;;;;2.40;99.90;;;;;;5040738;28;19969;-94
2024/01/17 13:20:52;;;;;;;;;;;2.50;99.90;;;;;;5048957;28;19932;-95
2024/01/17 13:23:21;;;;;;;;;;;2.90;99.90;;;;;;5044109;28;19928;-93
2024/01/17 13:25:48;;;;;;;;;;;4.10;99.90;;;;;;5050418;22;19925;-73
2024/01/17 13:28:16;;;;;;;;;;;2.40;99.90;;;;;;5049904;28;19921;-72
2024/01/17 13:30:44;;;;;;;;;;;2.40;99.90;;;;;;5052944;28;19956;-73
2024/01/17 13:33:21;;;;;;;;;;;2.50;99.90;;;;;;5037344;28;20028;-76
2024/01/17 13:35:50;;;;;;;;;;;2.50;99.90;;;;;;5053938;22;19929;-74
2024/01/17 13:38:24;;;;;;;;;;;2.60;99.90;;;;;;5036980;28;20008;-76
2024/01/17 13:40:51;;;;;;;;;;;2.70;99.90;;;;;;5040557;28;19933;-75
2024/01/17 13:43:17;;;;;;;;;;;2.70;99.90;;;;;;5038075;28;20061;-72
2024/01/17 13:45:45;;;;;;;;;;;2.70;99.90;;;;;;5039207;28;19939;-72
2024/01/17 13:48:12;;;;;;;;;;;2.70;99.90;;;;;;5031208;28;21607;-72
2024/01/17 13:50:39;;;;;;;;;;;2.70;99.90;;;;;;5032859;28;19996;-72
2024/01/17 13:53:17;;;;;;;;;;;2.80;99.90;;;;;;5037437;28;20193;-74
2024/01/17 13:55:44;;;;;;;;;;;2.80;99.90;;;;;;5049188;28;19967;-72
2024/01/17 13:58:10;;;;;;;;;;;2.80;99.90;;;;;;5041255;28;19952;-72
2024/01/17 14:00:39;;;;;;;;;;;2.90;99.90;;;;;;5037540;28;20173;-72
2024/01/17 14:03:08;;;;;;;;;;;2.90;99.90;;;;;;5046889;28;20193;-72
2024/01/17 14:05:35;;;;;;;;;;;2.90;99.90;;;;;;5035541;28;20051;-73
2024/01/17 14:08:01;;;;;;;;;;;2.90;99.90;;;;;;5033767;28;19997;-75
2024/01/17 14:10:28;;;;;;;;;;;2.90;99.90;;;;;;5034001;28;19992;-74
2024/01/17 14:12:54;;;;;;;;;;;3.00;99.90;;;;;;5033127;28;19992;-72
2024/01/17 14:15:23;;;;;;;;;;;3.00;99.90;;;;;;5039441;28;19921;-73
2024/01/17 14:17:50;;;;;;;;;;;3.00;99.90;;;;;;5047159;28;19921;-72
2024/01/17 14:20:19;;;;;;;;;;;3.00;99.90;;;;;;5044523;28;20159;-72
2024/01/17 14:22:46;;;;;;;;;;;3.00;99.90;;;;;;5036081;28;20211;-73
2024/01/17 14:25:14;;;;;;;;;;;3.00;99.90;;;;;;5039087;28;19956;-72